METAR de aeropuertos de Murcia y cercanos

 

LEMI - Murcia/Corvera
Actualización: 22/05/2019 13:00
Despejado
Despejado
 Viento del SSE
Viento: SSE 9 km/h
Temperatura: 24°C
Rocío: 5°C
Humedad: 29%
Barómetro: 1019 hPa
Resumen: Despejado
Visibilidad: greater than 10 km
2019/05/22 11:00 LEMI 221100Z 16005KT CAVOK 24/05 Q1019
LERI - Murcia/Alcantarilla
Actualización: 22/05/2019 13:00
Few Clouds
Few Clouds
 Viento del varies
Viento: varies 6 km/h
Temperatura: 25°C
Rocío: 8°C
Humedad: 34%
Barómetro: 1018 hPa
Nubosidad: Few Clouds
Visibilidad: 10 km
Cloud details: Few Clouds 1219 m
2019/05/22 11:00 LERI 221100Z VRB03KT 9999 FEW040 25/08 Q1018 NOSIG
LELC - Murcia/San Javier
Actualización: 22/05/2019 13:00
Despejado
Despejado
 Viento del ESE
Viento: ESE 11 km/h
Temperatura: 22°C
Rocío: 16°C
Humedad: 69%
Barómetro: 1018 hPa
Resumen: Despejado
Visibilidad: greater than 10 km
2019/05/22 11:00 LELC 221100Z 11006KT 080V140 CAVOK 22/16 Q1018 NOSIG
 
LEAL - Alicante
Actualización: 22/05/2019 13:00
Despejado
Despejado
 Viento del E
Viento: E 15 km/h
Temperatura: 23°C
Rocío: 8°C
Humedad: 38%
Barómetro: 1018 hPa
Resumen: Despejado
Visibilidad: greater than 10 km
2019/05/22 11:00 LEAL 221100Z 09008KT 060V140 CAVOK 23/08 Q1018 NOSIG
LEAB - Albacete
Actualización: 22/05/2019 13:00
Despejado
Despejado
 Viento del varies
Viento: varies 9 km/h
Temperatura: 22°C
Rocío: 9°C
Humedad: 44%
Barómetro: 1019 hPa
Resumen: Despejado
Visibilidad: greater than 10 km
2019/05/22 11:00 LEAB 221100Z VRB05KT CAVOK 22/09 Q1019 NOSIG
LEAM - Almería
Actualización: 22/05/2019 12:30
Despejado
Despejado
 Viento del S
Viento: S 11 km/h
Temperatura: 22°C
Rocío: 17°C
Humedad: 73%
Barómetro: 1017 hPa
Resumen: Despejado
Visibilidad: greater than 10 km
2019/05/22 10:30 LEAM 221030Z 19006KT 150V240 CAVOK 22/17 Q1017

La estación de MeteoMurcia.com, publica sus datos en los siguientes proyectos:

Weather Underground PWS IMURCIAP2 Meteoclimatic www.awekas.at

W3Counter
Web Analytics